KPIR/PIR METAR and TAF weather

Enter ICAO airport designator
Station Type Date Time Source
KPIR METAR 2022/12/04 10:53 UTC NOAA

KPIR 041053Z AUTO 24008KT 10SM CLR M11/M13 A3013 RMK AO2 SLP231 T11061133


Station Type Date Time Source
KPIR Decoded METAR 2022/12/04 10:53 UTC NOAA

PIERRE REGIONAL AIRPORT, SD, United States (KPIR) 44-23N 100-17W 526M
Dec 04, 2022 - 05:53 AM EST / 2022.12.04 1053 UTC
Wind: from the WSW (240 degrees) at 9 MPH (8 KT):0
Visibility: 10 mile(s):0
Sky conditions: clear
Temperature: 12.9 F (-10.6 C)
Windchill: 1 F (-17 C):1
Dew Point: 8.1 F (-13.3 C)
Relative Humidity: 80%
Pressure (altimeter): 30.13 in. Hg (1020 hPa)
ob: KPIR 041053Z AUTO 24008KT 10SM CLR M11/M13 A3013 RMK AO2 SLP231 T11061133
cycle: 11

Station Type Date Time Source
KPIR TAF 2022/12/04 12:22 UTC NOAA

TAF KPIR 041120Z 0412/0512 24008KT P6SM SKC
FM041700 24010G16KT P6SM SKC
FM042300 17006KT P6SM SCT250
FM050500 35009KT P6SM BKN250

Example: see airport list